sensor_id;sensor_type;location;lat;lon;timestamp;temperature;humidity
21770;DHT22;11046;49.558;8.674;2023-02-12T00:00:15;4.60;98.70
21770;DHT22;11046;49.558;8.674;2023-02-12T00:03:16;4.60;98.70
21770;DHT22;11046;49.558;8.674;2023-02-12T00:06:17;4.70;98.70
21770;DHT22;11046;49.558;8.674;2023-02-12T00:09:17;4.70;98.70
21770;DHT22;11046;49.558;8.674;2023-02-12T00:12:18;4.60;98.70
21770;DHT22;11046;49.558;8.674;2023-02-12T00:15:19;4.70;98.80
21770;DHT22;11046;49.558;8.674;2023-02-12T00:18:20;4.60;98.80
21770;DHT22;11046;49.558;8.674;2023-02-12T00:21:21;4.60;98.90
21770;DHT22;11046;49.558;8.674;2023-02-12T00:24:22;4.60;98.90
21770;DHT22;11046;49.558;8.674;2023-02-12T00:27:23;4.70;98.80
21770;DHT22;11046;49.558;8.674;2023-02-12T00:30:23;4.60;98.90
21770;DHT22;11046;49.558;8.674;2023-02-12T00:33:24;4.60;99.00
21770;DHT22;11046;49.558;8.674;2023-02-12T00:36:26;4.60;99.00
21770;DHT22;11046;49.558;8.674;2023-02-12T00:39:27;4.50;99.00
21770;DHT22;11046;49.558;8.674;2023-02-12T00:42:28;4.50;99.00
21770;DHT22;11046;49.558;8.674;2023-02-12T00:45:29;4.50;99.50
21770;DHT22;11046;49.558;8.674;2023-02-12T00:48:32;4.50;99.10
21770;DHT22;11046;49.558;8.674;2023-02-12T00:51:33;4.50;99.20
21770;DHT22;11046;49.558;8.674;2023-02-12T00:54:34;4.50;99.20
21770;DHT22;11046;49.558;8.674;2023-02-12T00:57:34;4.50;99.30
21770;DHT22;11046;49.558;8.674;2023-02-12T01:00:35;4.50;99.20
21770;DHT22;11046;49.558;8.674;2023-02-12T01:03:36;4.60;99.10
21770;DHT22;11046;49.558;8.674;2023-02-12T01:06:37;4.70;99.10
21770;DHT22;11046;49.558;8.674;2023-02-12T01:09:38;4.60;99.10
21770;DHT22;11046;49.558;8.674;2023-02-12T01:12:39;4.60;99.10
21770;DHT22;11046;49.558;8.674;2023-02-12T01:15:41;4.50;99.60
21770;DHT22;11046;49.558;8.674;2023-02-12T01:18:42;4.50;99.40
21770;DHT22;11046;49.558;8.674;2023-02-12T01:21:43;4.50;99.40
21770;DHT22;11046;49.558;8.674;2023-02-12T01:24:44;4.40;99.50
21770;DHT22;11046;49.558;8.674;2023-02-12T01:27:45;4.30;99.60
21770;DHT22;11046;49.558;8.674;2023-02-12T01:30:46;4.40;99.60
21770;DHT22;11046;49.558;8.674;2023-02-12T01:33:51;4.30;99.60
21770;DHT22;11046;49.558;8.674;2023-02-12T01:36:52;4.40;99.60
21770;DHT22;11046;49.558;8.674;2023-02-12T01:39:53;4.40;99.60
21770;DHT22;11046;49.558;8.674;2023-02-12T01:42:53;4.40;99.60
21770;DHT22;11046;49.558;8.674;2023-02-12T01:45:54;4.40;99.60
21770;DHT22;11046;49.558;8.674;2023-02-12T01:48:54;4.40;99.60
21770;DHT22;11046;49.558;8.674;2023-02-12T01:52:44;4.50;99.50
21770;DHT22;11046;49.558;8.674;2023-02-12T01:55:26;4.50;99.60
21770;DHT22;11046;49.558;8.674;2023-02-12T01:58:30;4.40;99.60
21770;DHT22;11046;49.558;8.674;2023-02-12T02:01:34;4.30;99.80
21770;DHT22;11046;49.558;8.674;2023-02-12T02:04:57;4.40;99.80
21770;DHT22;11046;49.558;8.674;2023-02-12T02:07:59;4.40;99.90
21770;DHT22;11046;49.558;8.674;2023-02-12T02:10:59;4.50;99.70
21770;DHT22;11046;49.558;8.674;2023-02-12T02:14:00;4.60;99.60
21770;DHT22;11046;49.558;8.674;2023-02-12T02:17:33;4.60;99.50
21770;DHT22;11046;49.558;8.674;2023-02-12T02:30:58;4.70;99.50
21770;DHT22;11046;49.558;8.674;2023-02-12T02:37:18;4.70;99.80
21770;DHT22;11046;49.558;8.674;2023-02-12T02:40:31;4.70;99.40
21770;DHT22;11046;49.558;8.674;2023-02-12T02:43:40;4.70;99.50
21770;DHT22;11046;49.558;8.674;2023-02-12T02:46:46;4.70;99.60
21770;DHT22;11046;49.558;8.674;2023-02-12T02:50:00;4.60;99.60
21770;DHT22;11046;49.558;8.674;2023-02-12T02:53:06;4.60;99.80
21770;DHT22;11046;49.558;8.674;2023-02-12T02:56:12;4.60;99.70
21770;DHT22;11046;49.558;8.674;2023-02-12T02:59:22;4.60;99.80
21770;DHT22;11046;49.558;8.674;2023-02-12T03:02:27;4.60;99.70
21770;DHT22;11046;49.558;8.674;2023-02-12T03:05:32;4.50;99.80
21770;DHT22;11046;49.558;8.674;2023-02-12T03:08:38;4.60;99.80
21770;DHT22;11046;49.558;8.674;2023-02-12T03:11:41;4.60;99.70
21770;DHT22;11046;49.558;8.674;2023-02-12T03:14:45;4.70;99.70
21770;DHT22;11046;49.558;8.674;2023-02-12T03:17:48;4.70;99.70
21770;DHT22;11046;49.558;8.674;2023-02-12T03:20:58;4.70;99.70
21770;DHT22;11046;49.558;8.674;2023-02-12T03:24:15;4.70;99.70
21770;DHT22;11046;49.558;8.674;2023-02-12T03:27:47;4.80;99.80
21770;DHT22;11046;49.558;8.674;2023-02-12T03:31:11;4.70;99.80
21770;DHT22;11046;49.558;8.674;2023-02-12T03:34:40;4.70;99.80
21770;DHT22;11046;49.558;8.674;2023-02-12T03:37:57;4.60;99.90
21770;DHT22;11046;49.558;8.674;2023-02-12T03:41:11;4.70;99.90
21770;DHT22;11046;49.558;8.674;2023-02-12T03:44:27;4.80;99.80
21770;DHT22;11046;49.558;8.674;2023-02-12T03:47:48;4.70;99.80
21770;DHT22;11046;49.558;8.674;2023-02-12T03:50:57;4.60;99.90
21770;DHT22;11046;49.558;8.674;2023-02-12T03:54:00;4.50;99.90
21770;DHT22;11046;49.558;8.674;2023-02-12T03:57:05;4.40;99.90
21770;DHT22;11046;49.558;8.674;2023-02-12T04:00:15;4.40;99.90
21770;DHT22;11046;49.558;8.674;2023-02-12T04:03:16;4.30;99.90
21770;DHT22;11046;49.558;8.674;2023-02-12T04:06:20;4.40;99.90
21770;DHT22;11046;49.558;8.674;2023-02-12T04:09:23;4.30;99.90
21770;DHT22;11046;49.558;8.674;2023-02-12T04:15:48;4.30;99.90
21770;DHT22;11046;49.558;8.674;2023-02-12T04:18:52;4.30;99.90
21770;DHT22;11046;49.558;8.674;2023-02-12T04:25:42;4.40;99.90
21770;DHT22;11046;49.558;8.674;2023-02-12T04:29:10;4.30;99.90
21770;DHT22;11046;49.558;8.674;2023-02-12T04:32:38;4.40;99.90
21770;DHT22;11046;49.558;8.674;2023-02-12T04:35:59;4.50;99.90
21770;DHT22;11046;49.558;8.674;2023-02-12T04:39:11;4.40;99.90
21770;DHT22;11046;49.558;8.674;2023-02-12T04:42:14;4.40;99.90
21770;DHT22;11046;49.558;8.674;2023-02-12T04:45:26;4.40;99.90
21770;DHT22;11046;49.558;8.674;2023-02-12T04:48:27;4.40;99.90
21770;DHT22;11046;49.558;8.674;2023-02-12T04:51:28;4.30;99.90
21770;DHT22;11046;49.558;8.674;2023-02-12T04:54:28;4.30;99.90
21770;DHT22;11046;49.558;8.674;2023-02-12T04:57:29;4.30;99.90
21770;DHT22;11046;49.558;8.674;2023-02-12T05:00:29;4.40;99.90
21770;DHT22;11046;49.558;8.674;2023-02-12T05:03:30;4.40;99.90
21770;DHT22;11046;49.558;8.674;2023-02-12T05:06:34;4.50;99.90
21770;DHT22;11046;49.558;8.674;2023-02-12T05:09:35;4.40;99.90
21770;DHT22;11046;49.558;8.674;2023-02-12T05:12:35;4.40;99.90
21770;DHT22;11046;49.558;8.674;2023-02-12T05:15:38;4.30;99.90
21770;DHT22;11046;49.558;8.674;2023-02-12T05:18:38;4.40;99.90
21770;DHT22;11046;49.558;8.674;2023-02-12T05:21:39;4.30;99.90
21770;DHT22;11046;49.558;8.674;2023-02-12T05:24:39;4.20;99.90
21770;DHT22;11046;49.558;8.674;2023-02-12T05:27:40;4.20;99.90
21770;DHT22;11046;49.558;8.674;2023-02-12T05:30:41;4.20;99.90
21770;DHT22;11046;49.558;8.674;2023-02-12T05:33:43;4.10;99.90
21770;DHT22;11046;49.558;8.674;2023-02-12T05:36:43;4.20;99.90
21770;DHT22;11046;49.558;8.674;2023-02-12T05:39:44;4.20;99.90
21770;DHT22;11046;49.558;8.674;2023-02-12T05:42:44;4.20;99.90
21770;DHT22;11046;49.558;8.674;2023-02-12T05:45:45;4.20;99.90
21770;DHT22;11046;49.558;8.674;2023-02-12T05:48:46;4.20;99.90
21770;DHT22;11046;49.558;8.674;2023-02-12T05:51:48;4.20;99.90
21770;DHT22;11046;49.558;8.674;2023-02-12T05:54:49;4.20;99.90
21770;DHT22;11046;49.558;8.674;2023-02-12T05:57:50;4.20;99.90
21770;DHT22;11046;49.558;8.674;2023-02-12T06:00:50;4.10;99.90
21770;DHT22;11046;49.558;8.674;2023-02-12T06:03:51;4.10;99.90
21770;DHT22;11046;49.558;8.674;2023-02-12T06:06:52;4.00;99.90
21770;DHT22;11046;49.558;8.674;2023-02-12T06:09:53;4.00;99.90
21770;DHT22;11046;49.558;8.674;2023-02-12T06:12:56;4.00;99.90
21770;DHT22;11046;49.558;8.674;2023-02-12T06:15:58;4.00;99.90
21770;DHT22;11046;49.558;8.674;2023-02-12T06:19:01;4.00;99.90
21770;DHT22;11046;49.558;8.674;2023-02-12T06:22:02;4.00;99.90
21770;DHT22;11046;49.558;8.674;2023-02-12T06:25:04;4.10;99.90
21770;DHT22;11046;49.558;8.674;2023-02-12T06:28:05;4.00;99.90
21770;DHT22;11046;49.558;8.674;2023-02-12T06:31:18;4.00;99.90
21770;DHT22;11046;49.558;8.674;2023-02-12T06:34:19;4.10;99.90
21770;DHT22;11046;49.558;8.674;2023-02-12T06:37:20;4.00;99.90
21770;DHT22;11046;49.558;8.674;2023-02-12T06:40:20;4.00;99.90
21770;DHT22;11046;49.558;8.674;2023-02-12T06:43:21;3.90;99.90
21770;DHT22;11046;49.558;8.674;2023-02-12T06:46:22;3.80;99.90
21770;DHT22;11046;49.558;8.674;2023-02-12T06:49:22;3.70;99.90
21770;DHT22;11046;49.558;8.674;2023-02-12T06:52:23;3.70;99.90
21770;DHT22;11046;49.558;8.674;2023-02-12T06:55:24;3.70;99.90
21770;DHT22;11046;49.558;8.674;2023-02-12T06:58:24;3.70;99.90
21770;DHT22;11046;49.558;8.674;2023-02-12T07:01:27;3.80;99.90
21770;DHT22;11046;49.558;8.674;2023-02-12T07:04:28;3.80;99.90
21770;DHT22;11046;49.558;8.674;2023-02-12T07:07:28;3.90;99.90
21770;DHT22;11046;49.558;8.674;2023-02-12T07:10:29;3.90;99.90
21770;DHT22;11046;49.558;8.674;2023-02-12T07:13:29;4.00;99.90
21770;DHT22;11046;49.558;8.674;2023-02-12T07:16:30;4.10;99.90
21770;DHT22;11046;49.558;8.674;2023-02-12T07:19:30;4.20;99.90
21770;DHT22;11046;49.558;8.674;2023-02-12T07:22:35;4.30;99.90
21770;DHT22;11046;49.558;8.674;2023-02-12T07:25:35;4.30;99.90
21770;DHT22;11046;49.558;8.674;2023-02-12T07:28:36;4.30;99.90
21770;DHT22;11046;49.558;8.674;2023-02-12T07:31:36;4.40;99.90
21770;DHT22;11046;49.558;8.674;2023-02-12T07:34:37;4.40;99.90
21770;DHT22;11046;49.558;8.674;2023-02-12T07:37:38;4.50;99.90
21770;DHT22;11046;49.558;8.674;2023-02-12T07:40:38;4.60;99.90
21770;DHT22;11046;49.558;8.674;2023-02-12T07:43:40;4.60;99.90
21770;DHT22;11046;49.558;8.674;2023-02-12T07:46:45;4.60;99.90
21770;DHT22;11046;49.558;8.674;2023-02-12T07:49:45;4.70;99.90
21770;DHT22;11046;49.558;8.674;2023-02-12T07:52:48;4.70;99.90
21770;DHT22;11046;49.558;8.674;2023-02-12T07:55:49;4.80;99.90
21770;DHT22;11046;49.558;8.674;2023-02-12T07:58:51;4.90;99.90
21770;DHT22;11046;49.558;8.674;2023-02-12T08:01:52;4.90;99.90
21770;DHT22;11046;49.558;8.674;2023-02-12T08:04:56;4.90;99.90
21770;DHT22;11046;49.558;8.674;2023-02-12T08:07:57;4.80;99.90
21770;DHT22;11046;49.558;8.674;2023-02-12T08:10:58;4.80;99.90
21770;DHT22;11046;49.558;8.674;2023-02-12T08:13:58;4.80;99.90
21770;DHT22;11046;49.558;8.674;2023-02-12T08:16:59;4.90;99.90
21770;DHT22;11046;49.558;8.674;2023-02-12T08:20:00;5.00;99.90
21770;DHT22;11046;49.558;8.674;2023-02-12T08:23:00;5.10;99.90
21770;DHT22;11046;49.558;8.674;2023-02-12T08:26:16;5.10;99.90
21770;DHT22;11046;49.558;8.674;2023-02-12T08:29:19;5.20;99.90
21770;DHT22;11046;49.558;8.674;2023-02-12T08:32:20;5.20;99.90
21770;DHT22;11046;49.558;8.674;2023-02-12T08:35:21;5.30;99.90
21770;DHT22;11046;49.558;8.674;2023-02-12T08:38:21;5.50;99.90
21770;DHT22;11046;49.558;8.674;2023-02-12T08:41:25;5.50;99.90
21770;DHT22;11046;49.558;8.674;2023-02-12T08:44:26;5.60;99.90
21770;DHT22;11046;49.558;8.674;2023-02-12T08:47:27;5.60;99.90
21770;DHT22;11046;49.558;8.674;2023-02-12T08:50:28;5.70;99.90
21770;DHT22;11046;49.558;8.674;2023-02-12T08:53:28;5.70;99.90
21770;DHT22;11046;49.558;8.674;2023-02-12T08:56:30;5.70;99.90
21770;DHT22;11046;49.558;8.674;2023-02-12T08:59:32;5.80;99.90
21770;DHT22;11046;49.558;8.674;2023-02-12T09:02:33;5.90;99.90
21770;DHT22;11046;49.558;8.674;2023-02-12T09:05:37;5.90;99.90
21770;DHT22;11046;49.558;8.674;2023-02-12T09:08:39;6.00;99.90
21770;DHT22;11046;49.558;8.674;2023-02-12T09:11:40;6.10;99.90
21770;DHT22;11046;49.558;8.674;2023-02-12T09:14:41;6.20;99.90
21770;DHT22;11046;49.558;8.674;2023-02-12T09:17:42;6.40;99.90
21770;DHT22;11046;49.558;8.674;2023-02-12T09:20:44;6.40;99.90
21770;DHT22;11046;49.558;8.674;2023-02-12T09:23:45;6.50;99.90
21770;DHT22;11046;49.558;8.674;2023-02-12T09:26:46;6.50;99.90
21770;DHT22;11046;49.558;8.674;2023-02-12T09:29:47;6.50;99.90
21770;DHT22;11046;49.558;8.674;2023-02-12T09:32:49;6.60;99.90
21770;DHT22;11046;49.558;8.674;2023-02-12T09:35:51;6.70;99.90
21770;DHT22;11046;49.558;8.674;2023-02-12T09:38:56;6.70;99.90
21770;DHT22;11046;49.558;8.674;2023-02-12T09:42:06;6.60;99.90
21770;DHT22;11046;49.558;8.674;2023-02-12T09:45:27;6.60;99.90
21770;DHT22;11046;49.558;8.674;2023-02-12T09:52:16;6.60;99.90
21770;DHT22;11046;49.558;8.674;2023-02-12T09:55:23;6.70;99.90
21770;DHT22;11046;49.558;8.674;2023-02-12T09:58:33;6.70;99.90
21770;DHT22;11046;49.558;8.674;2023-02-12T10:01:35;6.80;99.90
21770;DHT22;11046;49.558;8.674;2023-02-12T10:04:36;6.80;99.90
21770;DHT22;11046;49.558;8.674;2023-02-12T10:07:55;6.80;99.90
21770;DHT22;11046;49.558;8.674;2023-02-12T10:18:40;7.10;99.90
21770;DHT22;11046;49.558;8.674;2023-02-12T10:28:40;7.10;99.90
21770;DHT22;11046;49.558;8.674;2023-02-12T10:31:46;7.10;99.90
21770;DHT22;11046;49.558;8.674;2023-02-12T10:34:49;7.20;99.90
21770;DHT22;11046;49.558;8.674;2023-02-12T10:38:03;7.30;99.90
21770;DHT22;11046;49.558;8.674;2023-02-12T10:41:10;7.20;99.90
21770;DHT22;11046;49.558;8.674;2023-02-12T10:44:11;7.30;99.90
21770;DHT22;11046;49.558;8.674;2023-02-12T10:47:21;7.50;99.90
21770;DHT22;11046;49.558;8.674;2023-02-12T10:50:40;7.60;99.90
21770;DHT22;11046;49.558;8.674;2023-02-12T10:53:45;7.70;99.90
21770;DHT22;11046;49.558;8.674;2023-02-12T10:56:46;7.80;99.90
21770;DHT22;11046;49.558;8.674;2023-02-12T10:59:50;7.80;99.90
21770;DHT22;11046;49.558;8.674;2023-02-12T11:06:25;8.00;99.90
21770;DHT22;11046;49.558;8.674;2023-02-12T11:09:30;8.00;99.90
21770;DHT22;11046;49.558;8.674;2023-02-12T11:12:39;8.10;99.90
21770;DHT22;11046;49.558;8.674;2023-02-12T11:15:47;8.20;99.90
21770;DHT22;11046;49.558;8.674;2023-02-12T11:18:57;8.30;99.90
21770;DHT22;11046;49.558;8.674;2023-02-12T11:22:25;8.40;99.90
21770;DHT22;11046;49.558;8.674;2023-02-12T11:25:30;8.50;99.90
21770;DHT22;11046;49.558;8.674;2023-02-12T11:28:34;8.50;99.90
21770;DHT22;11046;49.558;8.674;2023-02-12T11:31:36;8.60;99.90
21770;DHT22;11046;49.558;8.674;2023-02-12T11:34:37;8.70;99.80
21770;DHT22;11046;49.558;8.674;2023-02-12T11:37:45;8.80;99.70
21770;DHT22;11046;49.558;8.674;2023-02-12T11:40:46;8.90;99.50
21770;DHT22;11046;49.558;8.674;2023-02-12T11:43:47;9.00;99.50
21770;DHT22;11046;49.558;8.674;2023-02-12T11:46:53;9.10;99.40
21770;DHT22;11046;49.558;8.674;2023-02-12T11:53:07;9.20;99.20
21770;DHT22;11046;49.558;8.674;2023-02-12T11:56:12;9.30;99.10
21770;DHT22;11046;49.558;8.674;2023-02-12T12:02:36;9.50;98.70
21770;DHT22;11046;49.558;8.674;2023-02-12T12:05:44;9.60;98.70
21770;DHT22;11046;49.558;8.674;2023-02-12T12:08:55;9.60;98.60
21770;DHT22;11046;49.558;8.674;2023-02-12T12:12:09;9.70;98.40
21770;DHT22;11046;49.558;8.674;2023-02-12T12:15:21;9.70;98.40
21770;DHT22;11046;49.558;8.674;2023-02-12T12:19:22;9.80;98.40
21770;DHT22;11046;49.558;8.674;2023-02-12T12:23:14;9.80;98.20
21770;DHT22;11046;49.558;8.674;2023-02-12T12:26:23;10.00;98.20
21770;DHT22;11046;49.558;8.674;2023-02-12T12:29:38;10.10;98.10
21770;DHT22;11046;49.558;8.674;2023-02-12T12:32:41;10.20;97.80
21770;DHT22;11046;49.558;8.674;2023-02-12T12:45:49;10.40;97.40
21770;DHT22;11046;49.558;8.674;2023-02-12T12:49:20;10.40;97.50
21770;DHT22;11046;49.558;8.674;2023-02-12T12:52:32;10.50;97.30
21770;DHT22;11046;49.558;8.674;2023-02-12T12:55:57;10.70;97.30
21770;DHT22;11046;49.558;8.674;2023-02-12T12:59:22;10.80;97.00
21770;DHT22;11046;49.558;8.674;2023-02-12T13:02:53;10.90;97.00
21770;DHT22;11046;49.558;8.674;2023-02-12T13:06:27;11.10;96.60
21770;DHT22;11046;49.558;8.674;2023-02-12T13:16:28;11.50;96.20
21770;DHT22;11046;49.558;8.674;2023-02-12T13:26:12;11.80;95.70
21770;DHT22;11046;49.558;8.674;2023-02-12T13:29:34;11.90;95.50
21770;DHT22;11046;49.558;8.674;2023-02-12T13:33:15;11.90;95.30
21770;DHT22;11046;49.558;8.674;2023-02-12T13:36:18;11.80;95.30
21770;DHT22;11046;49.558;8.674;2023-02-12T13:39:28;11.70;95.70
21770;DHT22;11046;49.558;8.674;2023-02-12T13:42:41;11.70;95.50
21770;DHT22;11046;49.558;8.674;2023-02-12T13:46:03;11.60;95.60
21770;DHT22;11046;49.558;8.674;2023-02-12T14:05:33;10.70;95.60
21770;DHT22;11046;49.558;8.674;2023-02-12T14:08:37;10.70;95.80
21770;DHT22;11046;49.558;8.674;2023-02-12T14:11:50;10.60;95.80
21770;DHT22;11046;49.558;8.674;2023-02-12T14:14:55;10.50;95.80
21770;DHT22;11046;49.558;8.674;2023-02-12T14:18:19;10.40;95.90
21770;DHT22;11046;49.558;8.674;2023-02-12T14:21:32;10.40;95.90
21770;DHT22;11046;49.558;8.674;2023-02-12T14:27:44;10.30;96.00
21770;DHT22;11046;49.558;8.674;2023-02-12T14:30:45;10.20;96.00
21770;DHT22;11046;49.558;8.674;2023-02-12T14:37:33;10.10;96.20
21770;DHT22;11046;49.558;8.674;2023-02-12T14:43:37;10.10;96.20
21770;DHT22;11046;49.558;8.674;2023-02-12T14:46:59;10.00;96.30
21770;DHT22;11046;49.558;8.674;2023-02-12T14:50:13;10.00;96.30
21770;DHT22;11046;49.558;8.674;2023-02-12T14:53:33;10.00;96.30
21770;DHT22;11046;49.558;8.674;2023-02-12T14:56:47;10.00;96.30
21770;DHT22;11046;49.558;8.674;2023-02-12T14:59:49;10.00;96.40
21770;DHT22;11046;49.558;8.674;2023-02-12T15:03:01;9.90;96.40
21770;DHT22;11046;49.558;8.674;2023-02-12T15:06:38;10.00;96.50
21770;DHT22;11046;49.558;8.674;2023-02-12T15:09:54;9.90;96.50
21770;DHT22;11046;49.558;8.674;2023-02-12T15:13:12;9.80;96.50
21770;DHT22;11046;49.558;8.674;2023-02-12T15:20:18;9.80;96.70
21770;DHT22;11046;49.558;8.674;2023-02-12T15:23:43;9.80;96.60
21770;DHT22;11046;49.558;8.674;2023-02-12T15:26:50;9.80;96.60
21770;DHT22;11046;49.558;8.674;2023-02-12T15:29:52;9.70;96.70
21770;DHT22;11046;49.558;8.674;2023-02-12T15:32:55;9.60;96.70
21770;DHT22;11046;49.558;8.674;2023-02-12T15:35:57;9.60;96.80
21770;DHT22;11046;49.558;8.674;2023-02-12T15:39:04;9.60;96.90
21770;DHT22;11046;49.558;8.674;2023-02-12T15:42:22;9.60;96.80
21770;DHT22;11046;49.558;8.674;2023-02-12T15:45:26;9.60;96.90
21770;DHT22;11046;49.558;8.674;2023-02-12T15:48:32;9.50;96.90
21770;DHT22;11046;49.558;8.674;2023-02-12T15:51:38;9.40;97.00
21770;DHT22;11046;49.558;8.674;2023-02-12T15:54:43;9.40;97.20
21770;DHT22;11046;49.558;8.674;2023-02-12T15:57:57;9.40;97.10
21770;DHT22;11046;49.558;8.674;2023-02-12T16:01:01;9.40;97.10
21770;DHT22;11046;49.558;8.674;2023-02-12T16:04:05;9.30;97.10
21770;DHT22;11046;49.558;8.674;2023-02-12T16:07:06;9.30;97.20
21770;DHT22;11046;49.558;8.674;2023-02-12T16:10:14;9.30;97.20
21770;DHT22;11046;49.558;8.674;2023-02-12T16:13:27;9.30;97.20
21770;DHT22;11046;49.558;8.674;2023-02-12T16:16:43;9.20;97.20
21770;DHT22;11046;49.558;8.674;2023-02-12T16:20:38;9.20;97.30
21770;DHT22;11046;49.558;8.674;2023-02-12T16:23:16;9.10;97.30
21770;DHT22;11046;49.558;8.674;2023-02-12T16:26:21;9.10;97.30
21770;DHT22;11046;49.558;8.674;2023-02-12T16:29:26;9.10;97.30
21770;DHT22;11046;49.558;8.674;2023-02-12T16:32:38;9.00;97.20
21770;DHT22;11046;49.558;8.674;2023-02-12T16:35:40;8.90;97.20
21770;DHT22;11046;49.558;8.674;2023-02-12T16:38:47;8.80;97.10
21770;DHT22;11046;49.558;8.674;2023-02-12T16:41:55;8.70;97.30
21770;DHT22;11046;49.558;8.674;2023-02-12T16:44:56;8.60;97.40
21770;DHT22;11046;49.558;8.674;2023-02-12T16:51:29;8.40;97.40
21770;DHT22;11046;49.558;8.674;2023-02-12T16:54:34;8.20;97.60
21770;DHT22;11046;49.558;8.674;2023-02-12T16:57:38;8.10;97.60
21770;DHT22;11046;49.558;8.674;2023-02-12T17:00:40;7.90;97.60
21770;DHT22;11046;49.558;8.674;2023-02-12T17:03:43;7.90;97.60
21770;DHT22;11046;49.558;8.674;2023-02-12T17:06:47;7.80;97.70
21770;DHT22;11046;49.558;8.674;2023-02-12T17:09:52;7.60;97.80
21770;DHT22;11046;49.558;8.674;2023-02-12T17:12:53;7.40;98.00
21770;DHT22;11046;49.558;8.674;2023-02-12T17:16:00;7.30;98.00
21770;DHT22;11046;49.558;8.674;2023-02-12T17:19:01;7.20;98.00
21770;DHT22;11046;49.558;8.674;2023-02-12T17:22:05;7.00;98.10
21770;DHT22;11046;49.558;8.674;2023-02-12T17:25:14;7.00;98.30
21770;DHT22;11046;49.558;8.674;2023-02-12T17:28:15;6.90;98.30
21770;DHT22;11046;49.558;8.674;2023-02-12T17:31:17;6.80;98.40
21770;DHT22;11046;49.558;8.674;2023-02-12T17:34:22;6.60;98.30
21770;DHT22;11046;49.558;8.674;2023-02-12T17:37:24;6.50;98.40
21770;DHT22;11046;49.558;8.674;2023-02-12T17:40:28;6.50;98.50
21770;DHT22;11046;49.558;8.674;2023-02-12T17:43:32;6.40;98.40
21770;DHT22;11046;49.558;8.674;2023-02-12T17:46:34;6.40;98.40
21770;DHT22;11046;49.558;8.674;2023-02-12T17:49:35;6.30;98.40
21770;DHT22;11046;49.558;8.674;2023-02-12T17:52:39;6.20;98.40
21770;DHT22;11046;49.558;8.674;2023-02-12T17:55:41;6.00;98.50
21770;DHT22;11046;49.558;8.674;2023-02-12T17:58:43;5.90;98.70
21770;DHT22;11046;49.558;8.674;2023-02-12T18:01:44;5.90;98.80
21770;DHT22;11046;49.558;8.674;2023-02-12T18:04:46;5.80;98.80
21770;DHT22;11046;49.558;8.674;2023-02-12T18:07:52;5.70;98.80
21770;DHT22;11046;49.558;8.674;2023-02-12T18:10:54;5.70;98.90
21770;DHT22;11046;49.558;8.674;2023-02-12T18:13:56;5.70;98.90
21770;DHT22;11046;49.558;8.674;2023-02-12T18:17:09;5.60;98.90
21770;DHT22;11046;49.558;8.674;2023-02-12T18:20:14;5.50;99.20
21770;DHT22;11046;49.558;8.674;2023-02-12T18:23:18;5.40;99.10
21770;DHT22;11046;49.558;8.674;2023-02-12T18:26:33;5.30;99.20
21770;DHT22;11046;49.558;8.674;2023-02-12T18:29:34;5.20;99.40
21770;DHT22;11046;49.558;8.674;2023-02-12T18:32:36;5.20;99.40
21770;DHT22;11046;49.558;8.674;2023-02-12T18:35:47;5.20;99.50
21770;DHT22;11046;49.558;8.674;2023-02-12T18:38:57;5.20;99.50
21770;DHT22;11046;49.558;8.674;2023-02-12T18:42:01;5.10;99.50
21770;DHT22;11046;49.558;8.674;2023-02-12T18:45:08;5.00;99.60
21770;DHT22;11046;49.558;8.674;2023-02-12T18:48:18;5.00;99.60
21770;DHT22;11046;49.558;8.674;2023-02-12T18:51:22;5.00;99.60
21770;DHT22;11046;49.558;8.674;2023-02-12T18:54:27;4.90;99.60
21770;DHT22;11046;49.558;8.674;2023-02-12T18:57:29;4.80;99.60
21770;DHT22;11046;49.558;8.674;2023-02-12T19:00:31;4.70;99.80
21770;DHT22;11046;49.558;8.674;2023-02-12T19:03:32;4.60;99.90
21770;DHT22;11046;49.558;8.674;2023-02-12T19:06:44;4.60;99.90
21770;DHT22;11046;49.558;8.674;2023-02-12T19:09:45;4.60;99.90
21770;DHT22;11046;49.558;8.674;2023-02-12T19:12:47;4.60;99.90
21770;DHT22;11046;49.558;8.674;2023-02-12T19:15:51;4.50;99.90
21770;DHT22;11046;49.558;8.674;2023-02-12T19:18:55;4.50;99.90
21770;DHT22;11046;49.558;8.674;2023-02-12T19:22:02;4.40;99.90
21770;DHT22;11046;49.558;8.674;2023-02-12T19:25:10;4.40;99.90
21770;DHT22;11046;49.558;8.674;2023-02-12T19:28:12;4.40;99.90
21770;DHT22;11046;49.558;8.674;2023-02-12T19:31:25;4.30;99.90
21770;DHT22;11046;49.558;8.674;2023-02-12T19:34:32;4.30;99.90
21770;DHT22;11046;49.558;8.674;2023-02-12T19:37:36;4.30;99.90
21770;DHT22;11046;49.558;8.674;2023-02-12T19:40:40;4.20;99.90
21770;DHT22;11046;49.558;8.674;2023-02-12T19:43:42;4.10;99.90
21770;DHT22;11046;49.558;8.674;2023-02-12T19:46:46;4.10;99.90
21770;DHT22;11046;49.558;8.674;2023-02-12T19:49:48;4.10;99.90
21770;DHT22;11046;49.558;8.674;2023-02-12T19:52:49;4.00;99.90
21770;DHT22;11046;49.558;8.674;2023-02-12T19:55:50;4.00;99.90
21770;DHT22;11046;49.558;8.674;2023-02-12T19:58:57;4.00;99.90
21770;DHT22;11046;49.558;8.674;2023-02-12T20:01:59;3.90;99.90
21770;DHT22;11046;49.558;8.674;2023-02-12T20:05:00;3.80;99.90
21770;DHT22;11046;49.558;8.674;2023-02-12T20:08:06;3.80;99.90
21770;DHT22;11046;49.558;8.674;2023-02-12T20:11:11;3.80;99.90
21770;DHT22;11046;49.558;8.674;2023-02-12T20:14:13;3.80;99.90
21770;DHT22;11046;49.558;8.674;2023-02-12T20:17:14;3.70;99.90
21770;DHT22;11046;49.558;8.674;2023-02-12T20:20:17;3.70;99.90
21770;DHT22;11046;49.558;8.674;2023-02-12T20:23:19;3.70;99.90
21770;DHT22;11046;49.558;8.674;2023-02-12T20:26:22;3.70;99.90
21770;DHT22;11046;49.558;8.674;2023-02-12T20:29:23;3.50;99.90
21770;DHT22;11046;49.558;8.674;2023-02-12T20:32:25;3.50;99.90
21770;DHT22;11046;49.558;8.674;2023-02-12T20:35:26;3.40;99.90
21770;DHT22;11046;49.558;8.674;2023-02-12T20:38:31;3.40;99.90
21770;DHT22;11046;49.558;8.674;2023-02-12T20:41:34;3.40;99.90
21770;DHT22;11046;49.558;8.674;2023-02-12T20:44:37;3.40;99.90
21770;DHT22;11046;49.558;8.674;2023-02-12T20:47:41;3.30;99.90
21770;DHT22;11046;49.558;8.674;2023-02-12T20:50:42;3.30;99.90
21770;DHT22;11046;49.558;8.674;2023-02-12T20:53:47;3.30;99.90
21770;DHT22;11046;49.558;8.674;2023-02-12T20:56:52;3.20;99.90
21770;DHT22;11046;49.558;8.674;2023-02-12T20:59:56;3.10;99.90
21770;DHT22;11046;49.558;8.674;2023-02-12T21:02:56;3.10;99.90
21770;DHT22;11046;49.558;8.674;2023-02-12T21:06:01;3.00;99.90
21770;DHT22;11046;49.558;8.674;2023-02-12T21:09:02;3.00;99.90
21770;DHT22;11046;49.558;8.674;2023-02-12T21:12:03;2.90;99.90
21770;DHT22;11046;49.558;8.674;2023-02-12T21:15:04;2.90;99.90
21770;DHT22;11046;49.558;8.674;2023-02-12T21:18:05;2.90;99.90
21770;DHT22;11046;49.558;8.674;2023-02-12T21:21:09;2.90;99.90
21770;DHT22;11046;49.558;8.674;2023-02-12T21:24:14;2.80;99.90
21770;DHT22;11046;49.558;8.674;2023-02-12T21:27:15;2.80;99.90
21770;DHT22;11046;49.558;8.674;2023-02-12T21:30:19;2.80;99.90
21770;DHT22;11046;49.558;8.674;2023-02-12T21:33:19;2.70;99.90
21770;DHT22;11046;49.558;8.674;2023-02-12T21:36:41;2.70;99.90